createdAt,value
2022-09-24T00:01:19.407Z,101041.31
2022-09-24T00:03:50.930Z,101041.34
2022-09-24T00:06:20.860Z,101043.94
2022-09-24T00:08:49.616Z,101040.47
2022-09-24T00:11:18.051Z,101039.56
2022-09-24T00:13:44.523Z,101039.59
2022-09-24T00:16:13.255Z,101037.84
2022-09-24T00:18:39.987Z,101038.69
2022-09-24T00:21:23.382Z,101036.09
2022-09-24T00:23:52.553Z,101036.09
2022-09-24T00:26:38.311Z,101033.44
2022-09-24T00:29:05.628Z,101031.66
2022-09-24T00:31:32.322Z,101029.94
2022-09-24T00:33:59.050Z,101025.59
2022-09-24T00:36:25.583Z,101029.03
2022-09-24T00:38:54.358Z,101024.72
2022-09-24T00:41:23.330Z,101022.91
2022-09-24T00:43:50.149Z,101019.38
2022-09-24T00:46:29.869Z,101020.34
2022-09-24T00:49:02.838Z,101022.06
2022-09-24T00:51:30.586Z,101022.06
2022-09-24T00:54:01.363Z,101018.56
2022-09-24T00:56:29.140Z,101023.88
2022-09-24T00:58:57.546Z,101010.81
2022-09-24T01:01:25.334Z,101019.50
2022-09-24T01:03:55.532Z,101011.63
2022-09-24T01:06:22.445Z,101010.75
2022-09-24T01:08:49.763Z,101020.34
2022-09-24T01:11:19.303Z,101016.84
2022-09-24T01:14:03.513Z,101008.13
2022-09-24T01:16:47.051Z,101009.84
2022-09-24T01:19:51.035Z,101008.13
2022-09-24T01:22:30.309Z,101008.94
2022-09-24T01:25:15.173Z,101002.03
2022-09-24T01:28:04.876Z,101008.13
2022-09-24T01:30:33.359Z,101003.75
2022-09-24T01:33:03.341Z,101008.09
2022-09-24T01:35:33.715Z,101003.78
2022-09-24T01:38:03.391Z,101002.88
2022-09-24T01:40:30.496Z,101008.94
2022-09-24T01:42:58.432Z,100998.47
2022-09-24T01:45:30.124Z,101003.72
2022-09-24T01:47:56.667Z,100998.53
2022-09-24T01:50:24.668Z,100996.78
2022-09-24T01:52:56.227Z,100990.59
2022-09-24T01:55:26.011Z,100995.00
2022-09-24T01:57:56.622Z,100994.94
2022-09-24T02:00:23.322Z,100984.53
2022-09-24T02:03:15.756Z,100983.63
2022-09-24T02:05:50.723Z,100987.97
2022-09-24T02:08:22.506Z,100979.28
2022-09-24T02:10:58.018Z,100974.94
2022-09-24T02:13:27.694Z,100974.88
2022-09-24T02:15:57.918Z,100985.38
2022-09-24T02:18:32.054Z,100985.41
2022-09-24T02:21:00.155Z,100973.19
2022-09-24T02:23:28.400Z,100969.69
2022-09-24T02:26:02.108Z,100975.81
2022-09-24T02:28:29.395Z,100976.59
2022-09-24T02:31:21.269Z,100974.00
2022-09-24T02:34:09.134Z,100975.75
2022-09-24T02:36:36.082Z,100983.59
2022-09-24T02:39:03.261Z,100980.13
2022-09-24T02:41:30.195Z,100983.59
2022-09-24T02:43:56.673Z,100980.97
2022-09-24T02:46:23.179Z,100977.44
2022-09-24T02:48:50.408Z,100976.56
2022-09-24T02:51:16.838Z,100970.50
2022-09-24T02:53:43.314Z,100974.75
2022-09-24T02:56:09.887Z,100974.88
2022-09-24T02:58:37.580Z,100976.56
2022-09-24T03:01:05.381Z,100966.91
2022-09-24T03:03:32.286Z,100975.72
2022-09-24T03:05:58.782Z,100974.00
2022-09-24T03:08:25.531Z,100965.31
2022-09-24T03:10:52.321Z,100963.56
2022-09-24T03:13:19.043Z,100967.03
2022-09-24T03:15:46.295Z,100967.91
2022-09-24T03:18:13.545Z,100980.97
2022-09-24T03:20:40.163Z,100973.16
2022-09-24T03:23:06.801Z,100975.72
2022-09-24T03:25:33.242Z,100968.75
2022-09-24T03:27:59.706Z,100968.75
2022-09-24T03:30:44.869Z,100966.16
2022-09-24T03:33:11.379Z,100963.56
2022-09-24T03:35:37.861Z,100957.44
2022-09-24T03:38:04.339Z,100965.34
2022-09-24T03:40:30.806Z,100959.22
2022-09-24T03:42:57.317Z,100961.84
2022-09-24T03:45:23.815Z,100960.09
2022-09-24T03:47:50.247Z,100957.47
2022-09-24T03:50:17.320Z,100961.81
2022-09-24T03:52:43.765Z,100959.22
2022-09-24T03:55:10.232Z,100953.94
2022-09-24T03:57:36.665Z,100964.41
2022-09-24T04:00:04.315Z,100950.41
2022-09-24T04:02:31.191Z,100957.41
2022-09-24T04:04:57.689Z,100946.91
2022-09-24T04:07:24.254Z,100949.53
2022-09-24T04:09:50.849Z,100953.91
2022-09-24T04:12:17.274Z,100945.19
2022-09-24T04:14:43.791Z,100947.75
2022-09-24T04:17:10.360Z,100950.38
2022-09-24T04:19:36.822Z,100958.25
2022-09-24T04:22:03.835Z,100947.81
2022-09-24T04:24:30.291Z,100948.66
2022-09-24T04:26:56.749Z,100948.69
2022-09-24T04:29:23.256Z,100948.66
2022-09-24T04:31:49.738Z,100944.31
2022-09-24T04:34:16.239Z,100941.69
2022-09-24T04:36:42.657Z,100937.34
2022-09-24T04:39:09.481Z,100942.56
2022-09-24T04:41:37.720Z,100933.81
2022-09-24T04:44:05.377Z,100939.09
2022-09-24T04:46:34.431Z,100943.41
2022-09-24T04:49:01.239Z,100938.22
2022-09-24T04:51:27.776Z,100938.22
2022-09-24T04:53:54.267Z,100944.31
2022-09-24T04:56:21.011Z,100943.44
2022-09-24T04:58:50.893Z,100940.81
2022-09-24T05:01:17.472Z,100941.69
2022-09-24T05:03:45.166Z,100942.53
2022-09-24T05:06:12.010Z,100943.34
2022-09-24T05:08:38.457Z,100944.16
2022-09-24T05:11:05.205Z,100943.38
2022-09-24T05:13:31.693Z,100936.38
2022-09-24T05:16:00.822Z,100945.97
2022-09-24T05:18:27.964Z,100948.59
2022-09-24T05:20:54.539Z,100951.16
2022-09-24T05:23:20.984Z,100959.03
2022-09-24T05:26:06.071Z,100948.56
2022-09-24T05:28:33.235Z,100954.72
2022-09-24T05:31:00.100Z,100954.72
2022-09-24T05:33:26.950Z,100955.59
2022-09-24T05:35:57.955Z,100951.25
2022-09-24T05:38:24.622Z,100957.34
2022-09-24T05:40:51.181Z,100948.69
2022-09-24T05:43:19.402Z,100952.16
2022-09-24T05:45:46.296Z,100950.47
2022-09-24T05:48:12.814Z,100949.56
2022-09-24T05:50:39.328Z,100946.09
2022-09-24T05:53:06.433Z,100949.56
2022-09-24T05:55:33.628Z,100946.13
2022-09-24T05:58:07.898Z,100945.22
2022-09-24T06:00:36.164Z,100951.34
2022-09-24T06:03:09.141Z,100957.47
2022-09-24T06:05:35.760Z,100953.16
2022-09-24T06:08:03.685Z,100961.91
2022-09-24T06:10:30.406Z,100952.31
2022-09-24T06:12:56.902Z,100952.31
2022-09-24T06:15:24.258Z,100952.28
2022-09-24T06:17:53.583Z,100963.66
2022-09-24T06:20:20.351Z,100968.88
2022-09-24T06:22:47.109Z,100959.25
2022-09-24T06:25:13.563Z,100957.53
2022-09-24T06:27:40.026Z,100958.38
2022-09-24T06:30:07.344Z,100964.47
2022-09-24T06:32:33.786Z,100959.22
2022-09-24T06:35:00.260Z,100964.41
2022-09-24T06:37:26.689Z,100960.06
2022-09-24T06:39:53.166Z,100965.25
2022-09-24T06:42:20.115Z,100967.00
2022-09-24T06:44:46.592Z,100968.69
2022-09-24T06:47:13.046Z,100974.81
2022-09-24T06:49:40.338Z,100973.91
2022-09-24T06:52:06.883Z,100966.75
2022-09-24T06:54:33.330Z,100970.16
2022-09-24T06:56:59.789Z,100978.78
2022-09-24T06:59:26.259Z,100975.25
2022-09-24T07:01:52.767Z,100972.50
2022-09-24T07:04:19.314Z,100976.13
2022-09-24T07:07:04.478Z,100969.94
2022-09-24T07:09:31.089Z,100974.91
2022-09-24T07:11:58.936Z,100971.25
2022-09-24T07:14:28.665Z,100976.59
2022-09-24T07:16:55.117Z,100983.50
2022-09-24T07:19:22.386Z,100978.97
2022-09-24T07:21:49.362Z,100973.69
2022-09-24T07:24:15.793Z,100974.38
2022-09-24T07:26:42.340Z,100976.13
2022-09-24T07:29:09.043Z,100976.34
2022-09-24T07:31:36.610Z,100977.13
2022-09-24T07:34:03.384Z,100977.91
2022-09-24T07:36:32.979Z,100969.91
2022-09-24T07:38:59.532Z,100972.34
2022-09-24T07:41:25.983Z,100973.09
2022-09-24T07:43:53.225Z,100980.78
2022-09-24T07:46:21.253Z,100983.66
2022-09-24T07:48:49.170Z,100973.09
2022-09-24T07:51:16.470Z,100974.19
2022-09-24T07:53:43.006Z,100974.66
2022-09-24T07:56:09.519Z,100985.22
2022-09-24T07:58:36.260Z,100980.19
2022-09-24T08:01:03.184Z,100976.03
2022-09-24T08:03:29.681Z,100989.31
2022-09-24T08:06:00.087Z,100985.34
2022-09-24T08:08:26.624Z,100991.56
2022-09-24T08:10:53.450Z,101001.28
2022-09-24T08:13:23.924Z,100995.25
2022-09-24T08:15:59.567Z,100985.41
2022-09-24T08:18:26.599Z,100999.97
2022-09-24T08:20:53.343Z,101002.13
2022-09-24T08:23:20.912Z,100992.88
2022-09-24T08:25:48.260Z,100996.56
2022-09-24T08:28:17.094Z,100994.41
2022-09-24T08:30:44.223Z,101003.78
2022-09-24T08:33:11.464Z,100996.09
2022-09-24T08:35:40.220Z,101000.31
2022-09-24T08:38:07.202Z,100991.09
2022-09-24T08:40:39.050Z,100998.16
2022-09-24T08:43:36.323Z,100996.47
2022-09-24T08:46:22.920Z,101000.09
2022-09-24T08:48:51.860Z,100996.94
2022-09-24T08:51:20.371Z,100999.91
2022-09-24T08:53:49.315Z,101013.38
2022-09-24T08:56:22.001Z,101012.53
2022-09-24T08:58:57.728Z,101016.38
2022-09-24T09:02:07.123Z,101015.44
2022-09-24T09:04:37.834Z,101018.88
2022-09-24T09:07:21.802Z,101026.84
2022-09-24T09:09:57.356Z,101019.84
2022-09-24T09:12:26.623Z,101022.41
2022-09-24T09:15:03.762Z,101023.22
2022-09-24T09:17:48.975Z,101026.06
2022-09-24T09:20:21.823Z,101026.06
2022-09-24T09:22:55.142Z,101021.69
2022-09-24T09:25:30.808Z,101024.81
2022-09-24T09:28:17.765Z,101020.44
2022-09-24T09:30:53.555Z,101023.28
2022-09-24T09:33:46.440Z,101014.69
2022-09-24T09:36:31.040Z,101012.69
2022-09-24T09:39:44.544Z,101015.66
2022-09-24T09:42:37.249Z,101022.94
2022-09-24T09:45:18.719Z,101022.28
2022-09-24T09:48:04.649Z,101017.88
2022-09-24T09:50:40.824Z,101023.56
2022-09-24T09:53:24.415Z,101018.28
2022-09-24T09:55:56.053Z,101023.63
2022-09-24T09:58:24.742Z,101020.22
2022-09-24T10:00:51.598Z,101020.97
2022-09-24T10:03:30.138Z,101019.09
2022-09-24T10:05:59.303Z,101024.47
2022-09-24T10:08:26.127Z,101017.38
2022-09-24T10:10:56.981Z,101025.38
2022-09-24T10:13:24.390Z,101015.63
2022-09-24T10:15:58.857Z,101019.94
2022-09-24T10:18:28.399Z,101022.69
2022-09-24T10:20:56.950Z,101025.84
2022-09-24T10:23:32.852Z,101020.44
2022-09-24T10:26:01.227Z,101014.31
2022-09-24T10:28:58.375Z,101020.50
2022-09-24T10:31:27.117Z,101018.72
2022-09-24T10:33:56.237Z,101017.88
2022-09-24T10:36:30.484Z,101016.31
2022-09-24T10:39:12.973Z,101015.25
2022-09-24T10:41:46.612Z,101020.28
2022-09-24T10:44:16.235Z,101014.28
2022-09-24T10:47:01.094Z,101021.50
2022-09-24T10:50:05.412Z,101012.75
2022-09-24T10:52:58.000Z,101010.97
2022-09-24T10:55:58.015Z,101015.22
2022-09-24T10:58:37.445Z,101020.31
2022-09-24T11:01:22.871Z,101022.88
2022-09-24T11:04:19.184Z,101019.56
2022-09-24T11:07:10.624Z,101024.75
2022-09-24T11:10:05.423Z,101019.50
2022-09-24T11:12:56.741Z,101016.88
2022-09-24T11:16:06.982Z,101013.97
2022-09-24T11:18:45.932Z,101012.38
2022-09-24T11:21:20.701Z,101016.66
2022-09-24T11:24:08.551Z,101014.88
2022-09-24T11:26:46.045Z,101014.75
2022-09-24T11:29:37.163Z,101004.28
2022-09-24T11:32:46.534Z,101010.88
2022-09-24T11:35:25.778Z,101019.13
2022-09-24T11:38:09.002Z,101010.81
2022-09-24T11:41:35.181Z,101015.84
2022-09-24T11:44:29.160Z,101010.25
2022-09-24T11:47:21.426Z,101017.47
2022-09-24T11:49:51.692Z,101015.38
2022-09-24T11:52:35.252Z,101015.84
2022-09-24T11:55:15.137Z,101017.78
2022-09-24T11:57:57.392Z,101010.84
2022-09-24T12:00:24.672Z,101020.47
2022-09-24T12:03:28.516Z,101023.22
2022-09-24T12:06:00.846Z,101019.84
2022-09-24T12:08:42.058Z,101014.31
2022-09-24T12:11:14.251Z,101019.41
2022-09-24T12:13:53.888Z,101009.13
2022-09-24T12:16:24.991Z,101024.59
2022-09-24T12:19:06.131Z,101009.56
2022-09-24T12:21:35.127Z,101017.59
2022-09-24T12:24:05.249Z,101018.53
2022-09-24T12:26:36.132Z,101015.31
2022-09-24T12:29:46.469Z,101011.81
2022-09-24T12:32:50.172Z,101014.50
2022-09-24T12:35:49.814Z,101013.59
2022-09-24T12:38:20.362Z,101012.75
2022-09-24T12:40:55.961Z,101010.91
2022-09-24T12:43:45.424Z,101013.69
2022-09-24T12:46:21.845Z,101014.53
2022-09-24T12:48:49.874Z,101021.34
2022-09-24T12:51:22.384Z,101016.94
2022-09-24T12:53:58.262Z,101013.47
2022-09-24T12:56:27.051Z,101015.09
2022-09-24T12:58:54.418Z,101018.56
2022-09-24T13:01:21.264Z,101012.19
2022-09-24T13:04:05.715Z,101017.50
2022-09-24T13:06:37.230Z,101012.34
2022-09-24T13:09:38.287Z,101014.13
2022-09-24T13:12:17.671Z,101007.91
2022-09-24T13:15:04.729Z,101011.41
2022-09-24T13:17:33.141Z,101008.81
2022-09-24T13:20:05.605Z,101004.38
2022-09-24T13:22:34.793Z,101005.31
2022-09-24T13:25:07.784Z,101009.75
2022-09-24T13:27:41.821Z,101004.34
2022-09-24T13:30:18.878Z,101005.25
2022-09-24T13:32:59.059Z,101007.19
2022-09-24T13:35:31.354Z,101007.31
2022-09-24T13:38:06.670Z,101009.81
2022-09-24T13:40:37.271Z,101005.63
2022-09-24T13:43:19.351Z,101016.28
2022-09-24T13:45:46.690Z,101003.00
2022-09-24T13:48:22.528Z,101003.94
2022-09-24T13:50:51.549Z,101003.09
2022-09-24T13:53:31.474Z,100997.66
2022-09-24T13:56:00.537Z,101010.75
2022-09-24T13:58:41.714Z,101007.19
2022-09-24T14:01:18.736Z,101003.69
2022-09-24T14:04:00.383Z,101005.31
2022-09-24T14:06:41.204Z,101004.34
2022-09-24T14:09:35.138Z,100999.25
2022-09-24T14:12:12.913Z,101006.06
2022-09-24T14:14:43.842Z,101006.47
2022-09-24T14:17:14.151Z,101007.25
2022-09-24T14:19:41.252Z,101005.41
2022-09-24T14:22:20.162Z,101003.59
2022-09-24T14:25:00.082Z,101003.53
2022-09-24T14:27:27.081Z,101007.16
2022-09-24T14:30:06.170Z,101002.59
2022-09-24T14:32:35.038Z,101002.66
2022-09-24T14:35:05.795Z,101009.53
2022-09-24T14:37:38.095Z,101000.88
2022-09-24T14:40:12.805Z,101007.00
2022-09-24T14:42:44.119Z,100998.88
2022-09-24T14:45:26.947Z,100993.72
2022-09-24T14:48:17.897Z,100996.31
2022-09-24T14:50:44.321Z,100994.59
2022-09-24T14:53:21.699Z,100990.44
2022-09-24T14:55:49.833Z,100989.06
2022-09-24T14:58:33.088Z,100991.44
2022-09-24T15:01:01.811Z,100995.09
2022-09-24T15:03:45.049Z,100987.13
2022-09-24T15:06:21.409Z,100993.94
2022-09-24T15:08:57.989Z,100987.13
2022-09-24T15:11:27.889Z,100995.72
2022-09-24T15:14:02.758Z,100992.38
2022-09-24T15:16:32.644Z,100991.34
2022-09-24T15:19:08.179Z,100994.19
2022-09-24T15:21:34.773Z,100987.31
2022-09-24T15:24:01.483Z,100993.31
2022-09-24T15:26:39.776Z,100989.88
2022-09-24T15:29:07.065Z,100992.34
2022-09-24T15:31:33.737Z,100994.16
2022-09-24T15:34:00.271Z,101004.56
2022-09-24T15:36:26.744Z,100994.19
2022-09-24T15:38:59.420Z,100990.06
2022-09-24T15:41:25.895Z,100999.69
2022-09-24T15:43:56.343Z,100994.19
2022-09-24T15:46:22.860Z,101000.31
2022-09-24T15:48:49.347Z,101002.81
2022-09-24T15:51:17.877Z,100995.09
2022-09-24T15:53:44.314Z,101001.16
2022-09-24T15:56:11.324Z,100994.31
2022-09-24T15:58:38.024Z,100999.66
2022-09-24T16:01:04.792Z,101003.06
2022-09-24T16:03:32.384Z,101004.91
2022-09-24T16:06:00.042Z,100997.81
2022-09-24T16:08:27.222Z,100998.88
2022-09-24T16:10:53.744Z,101001.59
2022-09-24T16:13:22.401Z,101006.78
2022-09-24T16:15:49.439Z,101005.13
2022-09-24T16:18:17.847Z,101006.81
2022-09-24T16:20:46.225Z,101006.78
2022-09-24T16:23:17.010Z,101006.78
2022-09-24T16:25:54.670Z,101004.19
2022-09-24T16:28:21.561Z,101011.16
2022-09-24T16:30:48.157Z,101014.59
2022-09-24T16:33:14.646Z,101013.84
2022-09-24T16:35:41.114Z,101006.88
2022-09-24T16:38:07.567Z,101008.53
2022-09-24T16:40:34.206Z,101012.97
2022-09-24T16:43:00.778Z,101009.44
2022-09-24T16:45:27.258Z,101003.31
2022-09-24T16:47:53.741Z,101004.28
2022-09-24T16:50:20.301Z,101005.19
2022-09-24T16:52:49.141Z,101006.16
2022-09-24T16:55:16.547Z,101008.63
2022-09-24T16:57:43.102Z,101012.28
2022-09-24T17:00:11.517Z,101006.22
2022-09-24T17:02:39.127Z,101015.81
2022-09-24T17:05:06.328Z,101009.59
2022-09-24T17:07:32.797Z,101018.41
2022-09-24T17:10:15.854Z,101015.72
2022-09-24T17:12:48.332Z,101021.78
2022-09-24T17:15:16.369Z,101013.94
2022-09-24T17:17:49.520Z,101009.75
2022-09-24T17:20:16.872Z,101020.31
2022-09-24T17:22:43.366Z,101018.50
2022-09-24T17:25:10.010Z,101017.50
2022-09-24T17:27:36.537Z,101022.75
2022-09-24T17:30:04.798Z,101010.59
2022-09-24T17:32:31.366Z,101017.47
2022-09-24T17:34:58.097Z,101018.19
2022-09-24T17:37:24.604Z,101020.88
2022-09-24T17:39:51.064Z,101027.09
2022-09-24T17:42:17.508Z,101013.09
2022-09-24T17:44:44.000Z,101023.59
2022-09-24T17:47:10.531Z,101016.56
2022-09-24T17:49:37.028Z,101024.47
2022-09-24T17:52:04.113Z,101024.69
2022-09-24T17:54:30.685Z,101024.56
2022-09-24T17:56:57.179Z,101027.19
2022-09-24T17:59:26.627Z,101022.03
2022-09-24T18:01:53.504Z,101020.25
2022-09-24T18:04:21.427Z,101023.66
2022-09-24T18:06:51.498Z,101020.97
2022-09-24T18:09:20.113Z,101028.75
2022-09-24T18:11:49.141Z,101027.16
2022-09-24T18:14:20.768Z,101037.47
2022-09-24T18:16:49.050Z,101026.28
2022-09-24T18:19:17.535Z,101035.03
2022-09-24T18:21:45.514Z,101031.66
2022-09-24T18:24:12.670Z,101037.72
2022-09-24T18:26:39.975Z,101041.25
2022-09-24T18:29:10.206Z,101042.19
2022-09-24T18:31:37.568Z,101046.41
2022-09-24T18:34:06.192Z,101053.44
2022-09-24T18:36:38.276Z,101054.28
2022-09-24T18:39:07.813Z,101054.25
2022-09-24T18:41:34.905Z,101050.81
2022-09-24T18:44:01.830Z,101052.44
2022-09-24T18:46:29.875Z,101053.28
2022-09-24T18:48:57.946Z,101051.72
2022-09-24T18:51:25.830Z,101048.97
2022-09-24T18:53:53.888Z,101048.22
2022-09-24T18:56:21.116Z,101043.78
2022-09-24T18:58:48.138Z,101040.31
2022-09-24T19:01:16.129Z,101046.50
2022-09-24T19:03:44.671Z,101050.88
2022-09-24T19:06:12.863Z,101052.72
2022-09-24T19:08:39.797Z,101050.16
2022-09-24T19:11:09.449Z,101051.84
2022-09-24T19:13:37.661Z,101057.09
2022-09-24T19:16:09.919Z,101054.41
2022-09-24T19:18:37.181Z,101064.06
2022-09-24T19:21:06.590Z,101055.25
2022-09-24T19:23:37.992Z,101061.28
2022-09-24T19:26:06.044Z,101057.72
2022-09-24T19:28:33.134Z,101060.31
2022-09-24T19:30:59.724Z,101060.38
2022-09-24T19:33:26.363Z,101057.69
2022-09-24T19:35:58.053Z,101058.63
2022-09-24T19:38:26.441Z,101060.38
2022-09-24T19:41:01.792Z,101061.28
2022-09-24T19:43:29.518Z,101059.53
2022-09-24T19:45:58.349Z,101060.44
2022-09-24T19:49:04.277Z,101056.09
2022-09-24T19:51:32.345Z,101056.03
2022-09-24T19:54:01.190Z,101062.94
2022-09-24T19:56:28.752Z,101059.56
2022-09-24T19:58:57.335Z,101056.97
2022-09-24T20:01:28.217Z,101050.84
2022-09-24T20:03:55.768Z,101051.81
2022-09-24T20:06:24.409Z,101050.03
2022-09-24T20:08:51.379Z,101052.69
2022-09-24T20:11:20.464Z,101053.56
2022-09-24T20:13:52.130Z,101051.88
2022-09-24T20:16:20.709Z,101051.78
2022-09-24T20:18:48.762Z,101050.00
2022-09-24T20:21:18.387Z,101054.28
2022-09-24T20:23:46.266Z,101049.13
2022-09-24T20:26:32.360Z,101039.50
2022-09-24T20:28:59.495Z,101044.69
2022-09-24T20:31:26.477Z,101040.41
2022-09-24T20:33:53.128Z,101048.25
2022-09-24T20:36:24.079Z,101041.28
2022-09-24T20:38:51.894Z,101041.31
2022-09-24T20:41:20.953Z,101049.22
2022-09-24T20:43:47.492Z,101048.28
2022-09-24T20:46:17.705Z,101040.41
2022-09-24T20:48:44.254Z,101049.19
2022-09-24T20:51:12.645Z,101040.38
2022-09-24T20:53:39.665Z,101054.38
2022-09-24T20:56:06.619Z,101044.78
2022-09-24T20:58:33.817Z,101044.72
2022-09-24T21:01:00.987Z,101051.78
2022-09-24T21:03:43.350Z,101051.66
2022-09-24T21:06:11.967Z,101050.81
2022-09-24T21:08:40.166Z,101056.22
2022-09-24T21:11:08.820Z,101058.78
2022-09-24T21:13:39.932Z,101051.78
2022-09-24T21:16:06.876Z,101052.69
2022-09-24T21:18:40.104Z,101049.94
2022-09-24T21:21:11.273Z,101051.75
2022-09-24T21:23:39.605Z,101050.06
2022-09-24T21:26:23.176Z,101047.50
2022-09-24T21:28:52.201Z,101043.97
2022-09-24T21:31:21.533Z,101044.84
2022-09-24T21:33:49.587Z,101042.06
2022-09-24T21:36:19.494Z,101043.88
2022-09-24T21:39:08.496Z,101051.75
2022-09-24T21:41:37.423Z,101050.88
2022-09-24T21:44:06.002Z,101045.75
2022-09-24T21:46:34.398Z,101046.63
2022-09-24T21:49:01.828Z,101057.09
2022-09-24T21:51:30.024Z,101045.63
2022-09-24T21:54:01.039Z,101046.59
2022-09-24T21:56:28.731Z,101052.81
2022-09-24T21:58:56.287Z,101040.47
2022-09-24T22:01:33.901Z,101046.72
2022-09-24T22:04:07.430Z,101047.53
2022-09-24T22:06:33.930Z,101050.09
2022-09-24T22:09:06.554Z,101045.69
2022-09-24T22:11:34.616Z,101046.53
2022-09-24T22:14:02.353Z,101044.78
2022-09-24T22:16:30.658Z,101044.03
2022-09-24T22:18:57.222Z,101046.63
2022-09-24T22:21:23.849Z,101045.78
2022-09-24T22:23:50.619Z,101042.22
2022-09-24T22:26:18.613Z,101037.06
2022-09-24T22:28:45.505Z,101041.44
2022-09-24T22:31:14.597Z,101040.56
2022-09-24T22:34:00.308Z,101035.28
2022-09-24T22:36:31.387Z,101040.59
2022-09-24T22:38:59.895Z,101035.34
2022-09-24T22:41:28.638Z,101034.47
2022-09-24T22:43:57.167Z,101035.34
2022-09-24T22:46:39.090Z,101037.09
2022-09-24T22:49:05.895Z,101036.22
2022-09-24T22:51:34.437Z,101029.25
2022-09-24T22:54:01.327Z,101025.72
2022-09-24T22:56:28.566Z,101018.72
2022-09-24T22:58:57.291Z,101023.97
2022-09-24T23:01:30.352Z,101026.59
2022-09-24T23:03:57.387Z,101022.19
2022-09-24T23:06:25.344Z,101023.91
2022-09-24T23:08:53.634Z,101025.69
2022-09-24T23:11:22.538Z,101023.94
2022-09-24T23:14:00.757Z,101019.53
2022-09-24T23:16:30.303Z,101020.44
2022-09-24T23:18:59.832Z,101023.94
2022-09-24T23:21:28.368Z,101017.78
2022-09-24T23:23:58.635Z,101018.69
2022-09-24T23:26:26.185Z,101012.53
2022-09-24T23:28:54.043Z,101020.44
2022-09-24T23:31:25.362Z,101019.50
2022-09-24T23:33:54.232Z,101017.84
2022-09-24T23:36:20.902Z,101022.19
2022-09-24T23:38:47.340Z,101023.03
2022-09-24T23:41:14.449Z,101022.03
2022-09-24T23:43:41.861Z,101020.28
2022-09-24T23:46:09.662Z,101020.22
2022-09-24T23:48:38.307Z,101013.19
2022-09-24T23:51:05.954Z,101019.44
2022-09-24T23:53:34.160Z,101022.16
2022-09-24T23:56:01.324Z,101023.03
2022-09-24T23:58:28.206Z,101022.13
